createdAt,value
2022-08-16T00:01:22.220Z,1.90
2022-08-16T00:03:51.988Z,1.83
2022-08-16T00:06:19.475Z,1.40
2022-08-16T00:08:46.250Z,1.73
2022-08-16T00:11:15.701Z,1.87
2022-08-16T00:13:54.127Z,1.80
2022-08-16T00:17:06.598Z,1.33
2022-08-16T00:19:10.341Z,1.77
2022-08-16T00:21:41.828Z,1.90
2022-08-16T00:24:11.494Z,1.90
2022-08-16T00:26:44.166Z,1.70
2022-08-16T00:29:15.795Z,1.83
2022-08-16T00:32:01.025Z,1.63
2022-08-16T00:34:52.382Z,1.40
2022-08-16T00:37:56.344Z,1.90
2022-08-16T00:40:34.276Z,1.90
2022-08-16T00:43:03.227Z,1.40
2022-08-16T00:45:58.516Z,1.60
2022-08-16T00:48:31.414Z,1.90
2022-08-16T00:51:00.094Z,1.43
2022-08-16T00:53:27.170Z,1.40
2022-08-16T00:56:00.757Z,1.40
2022-08-16T00:58:34.835Z,1.40
2022-08-16T01:01:03.329Z,1.40
2022-08-16T01:03:37.410Z,1.67
2022-08-16T01:06:40.497Z,1.30
2022-08-16T01:09:00.069Z,1.27
2022-08-16T01:11:27.896Z,1.50
2022-08-16T01:14:04.417Z,1.63
2022-08-16T01:16:32.050Z,2.30
2022-08-16T01:19:22.483Z,1.50
2022-08-16T01:22:46.794Z,1.93
2022-08-16T01:24:55.530Z,1.70
2022-08-16T01:27:30.961Z,1.70
2022-08-16T01:30:06.028Z,1.70
2022-08-16T01:33:01.454Z,2.00
2022-08-16T01:35:37.990Z,1.80
2022-08-16T01:38:31.384Z,1.77
2022-08-16T01:41:07.993Z,1.50
2022-08-16T01:43:37.903Z,1.47
2022-08-16T01:46:29.827Z,1.90
2022-08-16T01:49:23.998Z,1.50
2022-08-16T01:52:29.266Z,1.60
2022-08-16T01:54:57.308Z,1.80
2022-08-16T01:57:24.614Z,1.70
2022-08-16T01:59:54.631Z,1.80
2022-08-16T02:02:27.201Z,1.63
2022-08-16T02:04:56.423Z,1.70
2022-08-16T02:07:24.654Z,1.80
2022-08-16T02:09:58.946Z,1.80
2022-08-16T02:12:50.456Z,1.63
2022-08-16T02:15:25.028Z,1.93
2022-08-16T02:17:56.549Z,1.33
2022-08-16T02:20:26.220Z,1.97
2022-08-16T02:22:55.136Z,2.00
2022-08-16T02:25:22.849Z,1.70
2022-08-16T02:27:50.703Z,1.60
2022-08-16T02:30:36.862Z,1.50
2022-08-16T02:33:09.395Z,1.80
2022-08-16T02:35:53.906Z,1.77
2022-08-16T02:38:23.970Z,2.03
2022-08-16T02:40:51.488Z,1.80
2022-08-16T02:43:21.216Z,1.80
2022-08-16T02:45:53.629Z,1.47
2022-08-16T02:48:30.677Z,1.50
2022-08-16T02:51:06.202Z,1.93
2022-08-16T02:53:44.733Z,1.60
2022-08-16T02:56:17.076Z,1.80
2022-08-16T02:58:45.472Z,1.50
2022-08-16T03:01:24.351Z,1.70
2022-08-16T03:04:29.993Z,1.53
2022-08-16T03:06:43.268Z,1.77
2022-08-16T03:09:13.771Z,1.77
2022-08-16T03:11:41.717Z,2.00
2022-08-16T03:14:08.600Z,1.80
2022-08-16T03:16:39.159Z,1.70
2022-08-16T03:19:09.757Z,1.90
2022-08-16T03:21:37.453Z,2.20
2022-08-16T03:24:28.726Z,2.13
2022-08-16T03:26:57.778Z,1.90
2022-08-16T03:29:27.325Z,2.10
2022-08-16T03:32:01.473Z,1.87
2022-08-16T03:34:29.988Z,1.50
2022-08-16T03:36:57.919Z,1.70
2022-08-16T03:39:25.392Z,1.60
2022-08-16T03:41:59.918Z,1.90
2022-08-16T03:44:43.878Z,1.70
2022-08-16T03:47:18.838Z,2.07
2022-08-16T03:49:51.704Z,1.70
2022-08-16T03:52:20.727Z,1.87
2022-08-16T03:54:53.370Z,1.70
2022-08-16T03:57:24.132Z,1.73
2022-08-16T03:59:59.290Z,1.80
2022-08-16T04:02:31.704Z,1.97
2022-08-16T04:04:58.715Z,1.97
2022-08-16T04:07:25.547Z,1.77
2022-08-16T04:09:52.531Z,1.60
2022-08-16T04:12:53.962Z,2.20
2022-08-16T04:15:08.767Z,2.20
2022-08-16T04:17:36.969Z,1.90
2022-08-16T04:20:24.040Z,1.83
2022-08-16T04:22:56.198Z,2.47
2022-08-16T04:25:23.710Z,2.70
2022-08-16T04:27:54.048Z,2.30
2022-08-16T04:30:32.215Z,2.10
2022-08-16T04:33:02.580Z,2.37
2022-08-16T04:35:33.998Z,2.40
2022-08-16T04:38:10.960Z,2.67
2022-08-16T04:40:48.248Z,2.30
2022-08-16T04:43:17.954Z,2.30
2022-08-16T04:45:45.789Z,2.30
2022-08-16T04:48:28.268Z,2.23
2022-08-16T04:51:00.008Z,2.10
2022-08-16T04:53:28.539Z,2.20
2022-08-16T04:55:55.437Z,2.33
2022-08-16T04:58:44.058Z,2.47
2022-08-16T05:01:09.252Z,2.40
2022-08-16T05:03:41.857Z,2.17
2022-08-16T05:06:23.462Z,2.10
2022-08-16T05:09:10.102Z,1.97
2022-08-16T05:11:36.909Z,1.83
2022-08-16T05:14:06.827Z,2.10
2022-08-16T05:16:34.029Z,1.67
2022-08-16T05:19:02.257Z,1.97
2022-08-16T05:21:35.965Z,1.80
2022-08-16T05:24:07.250Z,2.00
2022-08-16T05:26:37.433Z,2.53
2022-08-16T05:29:11.106Z,1.70
2022-08-16T05:31:47.929Z,1.77
2022-08-16T05:34:21.468Z,2.07
2022-08-16T05:36:51.029Z,1.97
2022-08-16T05:39:18.910Z,1.90
2022-08-16T05:41:47.690Z,1.80
2022-08-16T05:44:22.921Z,2.43
2022-08-16T05:46:54.966Z,2.20
2022-08-16T05:49:23.335Z,1.73
2022-08-16T05:51:50.814Z,1.53
2022-08-16T05:54:25.257Z,1.90
2022-08-16T05:56:52.783Z,1.60
2022-08-16T05:59:22.031Z,1.70
2022-08-16T06:01:52.407Z,1.60
2022-08-16T06:04:36.316Z,1.50
2022-08-16T06:07:08.747Z,1.50
2022-08-16T06:09:43.838Z,1.73
2022-08-16T06:12:26.313Z,2.07
2022-08-16T06:14:53.315Z,1.60
2022-08-16T06:17:22.442Z,1.83
2022-08-16T06:19:49.245Z,1.93
2022-08-16T06:22:37.280Z,1.73
2022-08-16T06:25:05.268Z,1.60
2022-08-16T06:27:39.834Z,1.70
2022-08-16T06:30:09.925Z,1.70
2022-08-16T06:32:42.967Z,1.37
2022-08-16T06:35:15.770Z,1.80
2022-08-16T06:37:47.552Z,3.27
2022-08-16T06:40:18.242Z,2.03
2022-08-16T06:42:47.731Z,2.10
2022-08-16T06:45:15.591Z,2.03
2022-08-16T06:47:53.195Z,2.20
2022-08-16T06:50:28.575Z,2.10
2022-08-16T06:52:58.354Z,1.90
2022-08-16T06:55:38.319Z,1.27
2022-08-16T06:58:08.299Z,1.80
2022-08-16T07:00:35.607Z,1.50
2022-08-16T07:03:28.006Z,1.20
2022-08-16T07:05:52.992Z,1.70
2022-08-16T07:08:20.656Z,1.80
2022-08-16T07:10:47.409Z,1.47
2022-08-16T07:13:26.729Z,1.60
2022-08-16T07:16:02.928Z,1.40
2022-08-16T07:18:29.998Z,1.90
2022-08-16T07:21:01.766Z,1.50
2022-08-16T07:23:37.243Z,1.47
2022-08-16T07:26:09.895Z,1.80
2022-08-16T07:28:37.226Z,1.30
2022-08-16T07:31:05.012Z,1.50
2022-08-16T07:33:51.259Z,1.33
2022-08-16T07:36:21.699Z,1.63
2022-08-16T07:38:50.034Z,1.60
2022-08-16T07:41:17.261Z,1.67
2022-08-16T07:43:46.182Z,1.43
2022-08-16T07:46:39.394Z,1.60
2022-08-16T07:49:03.295Z,1.20
2022-08-16T07:51:36.968Z,1.40
2022-08-16T07:54:10.570Z,1.57
2022-08-16T07:56:38.676Z,1.50
2022-08-16T07:59:06.755Z,1.50
2022-08-16T08:01:34.651Z,1.43
2022-08-16T08:04:02.925Z,1.90
2022-08-16T08:06:32.404Z,1.57
2022-08-16T08:09:00.567Z,1.60
2022-08-16T08:11:29.735Z,1.73
2022-08-16T08:14:03.547Z,1.60
2022-08-16T08:16:32.427Z,1.97
2022-08-16T08:19:02.294Z,1.80
2022-08-16T08:21:58.416Z,1.80
2022-08-16T08:24:18.426Z,1.70
2022-08-16T08:26:50.066Z,1.87
2022-08-16T08:29:22.922Z,1.80
2022-08-16T08:31:52.849Z,2.10
2022-08-16T08:34:22.277Z,1.60
2022-08-16T08:36:54.389Z,1.70
2022-08-16T08:39:22.791Z,1.73
2022-08-16T08:41:51.205Z,1.43
2022-08-16T08:44:28.487Z,1.73
2022-08-16T08:47:00.187Z,1.73
2022-08-16T08:49:46.482Z,1.67
2022-08-16T08:52:47.815Z,1.27
2022-08-16T08:55:10.855Z,1.70
2022-08-16T08:57:47.617Z,2.27
2022-08-16T09:00:17.756Z,1.37
2022-08-16T09:02:52.032Z,1.90
2022-08-16T09:05:22.248Z,1.90
2022-08-16T09:08:00.398Z,1.27
2022-08-16T09:10:30.412Z,1.53
2022-08-16T09:12:58.623Z,1.57
2022-08-16T09:15:26.096Z,1.77
2022-08-16T09:17:59.442Z,1.93
2022-08-16T09:20:27.606Z,1.70
2022-08-16T09:22:55.368Z,1.97
2022-08-16T09:25:25.947Z,2.13
2022-08-16T09:28:02.355Z,1.87
2022-08-16T09:30:43.387Z,1.73
2022-08-16T09:33:14.530Z,1.50
2022-08-16T09:35:42.733Z,1.37
2022-08-16T09:38:12.312Z,1.80
2022-08-16T09:40:46.971Z,1.63
2022-08-16T09:43:46.311Z,1.67
2022-08-16T09:46:33.334Z,1.87
2022-08-16T09:48:56.441Z,1.63
2022-08-16T09:51:26.291Z,1.80
2022-08-16T09:53:57.656Z,1.57
2022-08-16T09:56:31.522Z,1.80
2022-08-16T09:59:03.611Z,1.73
2022-08-16T10:01:33.522Z,1.80
2022-08-16T10:04:01.548Z,1.50
2022-08-16T10:06:33.812Z,1.90
2022-08-16T10:09:04.170Z,1.77
2022-08-16T10:11:51.715Z,2.43
2022-08-16T10:14:19.909Z,1.67
2022-08-16T10:16:59.737Z,2.13
2022-08-16T10:19:29.366Z,1.80
2022-08-16T10:22:05.101Z,1.63
2022-08-16T10:24:33.393Z,1.80
2022-08-16T10:27:26.095Z,1.87
2022-08-16T10:30:01.329Z,1.77
2022-08-16T10:32:34.246Z,1.60
2022-08-16T10:35:03.471Z,1.90
2022-08-16T10:37:32.650Z,1.50
2022-08-16T10:40:29.716Z,1.70
2022-08-16T10:42:55.759Z,1.70
2022-08-16T10:45:23.025Z,1.50
2022-08-16T10:47:58.909Z,1.57
2022-08-16T10:50:30.212Z,2.00
2022-08-16T10:52:59.432Z,1.87
2022-08-16T10:55:44.526Z,1.50
2022-08-16T10:58:16.839Z,2.00
2022-08-16T11:00:46.002Z,1.70
2022-08-16T11:06:03.124Z,2.00
2022-08-16T11:08:35.660Z,2.17
2022-08-16T11:11:12.993Z,1.93
2022-08-16T11:14:06.061Z,1.60
2022-08-16T11:19:22.732Z,2.37
2022-08-16T11:24:43.433Z,1.57
2022-08-16T11:27:20.413Z,1.70
2022-08-16T11:29:52.779Z,1.70
2022-08-16T11:32:29.848Z,1.70
2022-08-16T11:35:13.347Z,1.80
2022-08-16T11:38:46.479Z,2.17
2022-08-16T11:40:52.617Z,1.50
2022-08-16T11:43:22.983Z,2.03
2022-08-16T11:45:53.881Z,2.47
2022-08-16T11:48:23.276Z,1.70
2022-08-16T11:50:50.084Z,2.17
2022-08-16T11:53:17.208Z,1.87
2022-08-16T11:55:44.568Z,2.27
2022-08-16T11:58:11.628Z,1.77
2022-08-16T12:00:50.512Z,2.23
2022-08-16T12:03:24.992Z,2.17
2022-08-16T12:06:10.708Z,1.70
2022-08-16T12:08:38.923Z,1.70
2022-08-16T12:11:05.970Z,1.73
2022-08-16T12:13:34.082Z,1.93
2022-08-16T12:16:00.930Z,2.00
2022-08-16T12:18:27.695Z,1.87
2022-08-16T12:20:55.257Z,1.77
2022-08-16T12:23:24.952Z,1.90
2022-08-16T12:25:52.237Z,1.90
2022-08-16T12:28:25.352Z,1.70
2022-08-16T12:31:06.595Z,1.80
2022-08-16T12:33:44.484Z,1.80
2022-08-16T12:36:12.984Z,1.87
2022-08-16T12:38:48.079Z,2.00
2022-08-16T12:41:24.612Z,2.30
2022-08-16T12:43:52.885Z,2.17
2022-08-16T12:46:24.925Z,1.93
2022-08-16T12:48:57.897Z,1.80
2022-08-16T12:51:59.874Z,2.00
2022-08-16T12:54:19.689Z,2.30
2022-08-16T12:56:46.867Z,2.10
2022-08-16T12:59:19.914Z,2.03
2022-08-16T13:01:47.978Z,1.70
2022-08-16T13:04:20.255Z,1.70
2022-08-16T13:06:48.805Z,1.80
2022-08-16T13:09:20.935Z,2.10
2022-08-16T13:12:03.434Z,1.80
2022-08-16T13:14:40.149Z,2.03
2022-08-16T13:17:18.547Z,2.57
2022-08-16T13:25:18.976Z,1.90
2022-08-16T13:28:01.880Z,2.10
2022-08-16T13:30:36.895Z,2.10
2022-08-16T13:33:10.825Z,1.87
2022-08-16T13:35:43.071Z,1.70
2022-08-16T13:38:11.047Z,1.87
2022-08-16T13:40:51.164Z,2.07
2022-08-16T13:43:19.615Z,2.00
2022-08-16T13:45:46.314Z,1.60
2022-08-16T13:48:24.921Z,1.93
2022-08-16T13:51:02.504Z,1.80
2022-08-16T13:53:31.217Z,2.03
2022-08-16T13:55:59.702Z,2.50
2022-08-16T13:58:37.582Z,2.03
2022-08-16T14:01:17.612Z,1.70
2022-08-16T14:03:46.697Z,2.00
2022-08-16T14:06:14.280Z,1.63
2022-08-16T14:08:43.614Z,1.40
2022-08-16T14:11:14.966Z,1.87
2022-08-16T14:13:43.720Z,2.07
2022-08-16T14:16:12.721Z,1.90
2022-08-16T14:18:52.994Z,1.70
2022-08-16T14:21:22.130Z,2.00
2022-08-16T14:23:52.310Z,1.63
2022-08-16T14:26:21.252Z,2.00
2022-08-16T14:28:50.716Z,1.77
2022-08-16T14:31:18.510Z,2.10
2022-08-16T14:33:45.508Z,1.77
2022-08-16T14:36:18.899Z,1.90
2022-08-16T14:38:58.045Z,1.70
2022-08-16T14:41:25.028Z,1.67
2022-08-16T14:43:51.991Z,2.23
2022-08-16T14:46:18.838Z,1.73
2022-08-16T14:48:45.703Z,2.50
2022-08-16T14:51:15.848Z,1.77
2022-08-16T14:53:45.285Z,1.73
2022-08-16T14:56:17.591Z,1.93
2022-08-16T14:58:59.548Z,1.83
2022-08-16T15:01:42.400Z,2.17
2022-08-16T15:04:13.738Z,2.23
2022-08-16T15:07:00.524Z,1.80
2022-08-16T15:09:27.398Z,2.00
2022-08-16T15:11:54.265Z,1.83
2022-08-16T15:14:20.982Z,2.10
2022-08-16T15:16:49.263Z,2.63
2022-08-16T15:19:17.251Z,2.20
2022-08-16T15:21:43.983Z,1.93
2022-08-16T15:24:16.829Z,1.90
2022-08-16T15:26:49.698Z,2.13
2022-08-16T15:29:16.424Z,1.60
2022-08-16T15:31:48.174Z,2.00
2022-08-16T15:34:22.042Z,1.80
2022-08-16T15:36:53.149Z,2.17
2022-08-16T15:39:30.472Z,2.27
2022-08-16T15:42:11.047Z,2.63
2022-08-16T15:44:50.816Z,2.40
2022-08-16T15:47:25.779Z,2.37
2022-08-16T15:49:55.765Z,1.93
2022-08-16T15:52:29.756Z,2.40
2022-08-16T15:54:58.787Z,2.23
2022-08-16T15:57:28.656Z,1.83
2022-08-16T16:00:14.936Z,1.90
2022-08-16T16:02:43.256Z,2.00
2022-08-16T16:05:10.421Z,2.00
2022-08-16T16:07:39.414Z,2.10
2022-08-16T16:10:13.172Z,2.50
2022-08-16T16:12:51.689Z,2.03
2022-08-16T16:15:24.288Z,2.13
2022-08-16T16:17:52.653Z,1.90
2022-08-16T16:20:21.602Z,2.50
2022-08-16T16:22:49.841Z,2.30
2022-08-16T16:25:17.564Z,1.60
2022-08-16T16:27:45.408Z,2.13
2022-08-16T16:30:33.030Z,2.20
2022-08-16T16:33:01.059Z,2.10
2022-08-16T16:35:29.070Z,2.47
2022-08-16T16:38:00.119Z,2.40
2022-08-16T16:40:32.854Z,2.10
2022-08-16T16:43:00.099Z,2.00
2022-08-16T16:45:33.315Z,1.93
2022-08-16T16:48:12.607Z,2.03
2022-08-16T16:50:45.242Z,1.50
2022-08-16T16:53:17.403Z,2.30
2022-08-16T16:55:52.194Z,2.07
2022-08-16T16:58:43.485Z,2.10
2022-08-16T17:01:20.742Z,2.43
2022-08-16T17:04:13.249Z,1.90
2022-08-16T17:06:53.709Z,2.30
2022-08-16T17:09:24.022Z,2.40
2022-08-16T17:11:55.536Z,2.13
2022-08-16T17:14:33.912Z,2.00
2022-08-16T17:17:04.121Z,2.00
2022-08-16T17:22:20.929Z,2.30
2022-08-16T17:24:50.859Z,2.20
2022-08-16T17:27:32.870Z,2.37
2022-08-16T17:30:29.388Z,1.97
2022-08-16T17:33:11.277Z,1.87
2022-08-16T17:35:55.261Z,2.37
2022-08-16T17:38:33.109Z,2.00
2022-08-16T17:39:26.516Z,1.93
2022-08-16T17:41:10.867Z,2.03
2022-08-16T17:43:44.507Z,2.97
2022-08-16T17:46:50.317Z,2.00
2022-08-16T17:49:00.621Z,2.13
2022-08-16T17:51:28.446Z,2.13
2022-08-16T17:53:55.613Z,2.70
2022-08-16T17:56:22.488Z,2.50
2022-08-16T17:58:49.170Z,2.30
2022-08-16T18:01:16.522Z,2.73
2022-08-16T18:04:02.740Z,2.40
2022-08-16T18:06:30.942Z,2.13
2022-08-16T18:09:03.554Z,2.47
2022-08-16T18:11:32.828Z,2.03
2022-08-16T18:14:00.041Z,2.03
2022-08-16T18:16:27.032Z,2.70
2022-08-16T18:18:53.854Z,2.20
2022-08-16T18:21:39.339Z,2.37
2022-08-16T18:24:06.209Z,2.43
2022-08-16T18:26:33.161Z,2.33
2022-08-16T18:29:00.022Z,2.33
2022-08-16T18:31:27.089Z,2.33
2022-08-16T18:33:55.499Z,2.33
2022-08-16T18:36:23.907Z,2.53
2022-08-16T18:38:51.203Z,2.60
2022-08-16T18:41:19.829Z,2.90
2022-08-16T18:44:24.293Z,2.60
2022-08-16T18:46:33.425Z,2.53
2022-08-16T18:49:00.117Z,2.23
2022-08-16T18:51:26.962Z,2.07
2022-08-16T18:53:53.837Z,2.40
2022-08-16T18:56:20.556Z,3.20
2022-08-16T18:58:47.254Z,2.77
2022-08-16T19:01:14.209Z,2.37
2022-08-16T19:03:41.077Z,2.97
2022-08-16T19:06:14.024Z,3.03
2022-08-16T19:08:43.788Z,2.63
2022-08-16T19:11:13.861Z,2.37
2022-08-16T19:13:44.125Z,2.90
2022-08-16T19:16:12.426Z,2.90
2022-08-16T19:18:39.322Z,3.00
2022-08-16T19:21:07.411Z,3.50
2022-08-16T19:23:37.243Z,3.30
2022-08-16T19:26:24.574Z,3.40
2022-08-16T19:28:59.566Z,2.57
2022-08-16T19:31:30.960Z,3.03
2022-08-16T19:33:58.708Z,2.73
2022-08-16T19:36:35.305Z,3.00
2022-08-16T19:39:06.175Z,2.70
2022-08-16T19:41:37.986Z,3.20
2022-08-16T19:44:06.004Z,3.10
2022-08-16T19:46:33.109Z,3.03
2022-08-16T19:49:00.039Z,3.10
2022-08-16T19:51:26.872Z,3.30
2022-08-16T19:53:53.892Z,3.10
2022-08-16T19:56:23.053Z,3.50
2022-08-16T19:59:16.472Z,2.67
2022-08-16T20:01:41.948Z,3.37
2022-08-16T20:04:12.763Z,3.77
2022-08-16T20:06:43.276Z,3.73
2022-08-16T20:09:12.723Z,3.30
2022-08-16T20:11:43.224Z,3.73
2022-08-16T20:14:09.903Z,4.83
2022-08-16T20:16:36.917Z,3.33
2022-08-16T20:19:04.038Z,3.10
2022-08-16T20:21:31.020Z,3.10
2022-08-16T20:24:22.618Z,3.57
2022-08-16T20:26:45.317Z,3.80
2022-08-16T20:29:11.981Z,3.77
2022-08-16T20:31:38.658Z,4.33
2022-08-16T20:34:05.429Z,3.70
2022-08-16T20:36:32.353Z,3.30
2022-08-16T20:39:00.226Z,3.47
2022-08-16T20:41:27.726Z,3.03
2022-08-16T20:43:55.148Z,3.20
2022-08-16T20:46:22.338Z,2.90
2022-08-16T20:48:49.499Z,3.60
2022-08-16T20:51:16.625Z,3.33
2022-08-16T20:53:44.158Z,3.00
2022-08-16T20:56:12.072Z,3.17
2022-08-16T20:58:39.004Z,3.00
2022-08-16T21:01:07.763Z,3.20
2022-08-16T21:03:35.496Z,2.97
2022-08-16T21:06:02.774Z,2.90
2022-08-16T21:08:51.591Z,3.17
2022-08-16T21:11:17.013Z,3.30
2022-08-16T21:13:43.976Z,3.30
2022-08-16T21:16:10.689Z,3.60
2022-08-16T21:18:37.450Z,3.17
2022-08-16T21:21:04.168Z,3.60
2022-08-16T21:23:30.895Z,3.40
2022-08-16T21:25:58.704Z,3.10
2022-08-16T21:28:41.133Z,3.00
2022-08-16T21:31:14.972Z,2.80
2022-08-16T21:33:43.189Z,3.33
2022-08-16T21:36:11.393Z,3.57
2022-08-16T21:38:39.019Z,3.70
2022-08-16T21:41:08.733Z,4.03
2022-08-16T21:43:35.570Z,3.40
2022-08-16T21:46:03.992Z,3.00
2022-08-16T21:48:34.943Z,2.83
2022-08-16T21:51:13.744Z,3.20
2022-08-16T21:53:41.586Z,3.10
2022-08-16T21:56:08.529Z,3.40
2022-08-16T21:58:43.927Z,3.20
2022-08-16T22:01:10.731Z,2.30
2022-08-16T22:03:37.765Z,3.50
2022-08-16T22:06:12.881Z,3.27
2022-08-16T22:08:49.687Z,3.17
2022-08-16T22:11:24.198Z,3.07
2022-08-16T22:13:58.300Z,3.57
2022-08-16T22:16:31.344Z,3.20
2022-08-16T22:18:58.350Z,2.80
2022-08-16T22:21:25.929Z,3.00
2022-08-16T22:23:57.105Z,3.30
2022-08-16T22:26:30.486Z,3.83
2022-08-16T22:29:04.487Z,2.63
2022-08-16T22:31:32.259Z,3.00
2022-08-16T22:33:59.213Z,3.27
2022-08-16T22:36:28.430Z,3.27
2022-08-16T22:38:58.291Z,3.63
2022-08-16T22:41:27.269Z,3.07
2022-08-16T22:43:54.092Z,4.57
2022-08-16T22:46:20.871Z,4.37
2022-08-16T22:48:50.290Z,3.83
2022-08-16T22:51:19.049Z,3.87
2022-08-16T22:53:45.802Z,3.47
2022-08-16T22:56:12.617Z,4.03
2022-08-16T22:58:39.557Z,3.67
2022-08-16T23:01:08.160Z,3.80
2022-08-16T23:03:35.960Z,4.30
2022-08-16T23:06:03.475Z,3.53
2022-08-16T23:08:39.692Z,4.10
2022-08-16T23:11:21.169Z,4.40
2022-08-16T23:13:54.776Z,3.70
2022-08-16T23:16:33.311Z,4.13
2022-08-16T23:19:10.763Z,4.10
2022-08-16T23:21:39.608Z,4.30
2022-08-16T23:24:07.767Z,4.30
2022-08-16T23:26:45.525Z,4.20
2022-08-16T23:29:22.499Z,5.53
2022-08-16T23:31:54.445Z,4.13
2022-08-16T23:34:22.101Z,4.37
2022-08-16T23:36:48.788Z,4.57
2022-08-16T23:39:15.557Z,4.43
2022-08-16T23:41:43.783Z,5.00
2022-08-16T23:44:54.933Z,4.07
2022-08-16T23:46:57.189Z,4.17
2022-08-16T23:50:01.794Z,4.10
2022-08-16T23:52:10.821Z,4.30
2022-08-16T23:54:37.513Z,4.33
2022-08-16T23:57:04.399Z,3.80
2022-08-16T23:59:35.919Z,4.20
